Time;durP1;ratioP1;P1;durP2;ratioP2;P2;SDS_P1;SDS_P2;PMS_P1;PMS_P2;Temp;Humidity;BMP_temperature;BMP_pressure;BME280_temperature;BME280_humidity;BME280_pressure;Samples;Min_cycle;Max_cycle;Signal;HPM_P1;HPM_P2
2021/12/06 00:01:15;;;;;;;9.87;7.17;;;;;;;2.55;96.85;97350.97;5077716;28;20492;-73
2021/12/06 00:03:44;;;;;;;8.27;6.87;;;;;;;2.59;96.76;97348.78;5077302;28;20671;-73
2021/12/06 00:06:13;;;;;;;9.57;6.73;;;;;;;2.58;96.84;97358.44;5077347;28;20584;-73
2021/12/06 00:08:40;;;;;;;8.60;6.57;;;;;;;2.63;96.37;97355.28;5077585;28;20186;-73
2021/12/06 00:11:09;;;;;;;11.43;7.00;;;;;;;2.65;96.65;97364.59;5077537;28;20268;-73
2021/12/06 00:13:38;;;;;;;9.53;7.20;;;;;;;2.68;96.76;97363.41;5077006;28;20236;-73
2021/12/06 00:16:09;;;;;;;8.90;6.90;;;;;;;2.67;96.52;97361.78;5077441;28;20193;-73
2021/12/06 00:18:37;;;;;;;10.33;6.40;;;;;;;2.71;96.20;97363.81;5077328;28;20307;-73
2021/12/06 00:21:05;;;;;;;9.33;6.83;;;;;;;2.65;96.54;97361.97;5077023;28;20185;-73
2021/12/06 00:23:31;;;;;;;9.83;7.00;;;;;;;2.60;96.53;97364.34;5077164;28;20228;-73
2021/12/06 00:25:58;;;;;;;10.57;7.30;;;;;;;2.66;96.71;97365.41;5077562;28;20189;-72
2021/12/06 00:28:25;;;;;;;9.40;6.80;;;;;;;2.60;96.15;97376.63;5076902;28;20576;-73
2021/12/06 00:30:52;;;;;;;9.77;6.63;;;;;;;2.68;96.77;97363.41;5077175;28;20196;-73
2021/12/06 00:33:20;;;;;;;7.70;6.60;;;;;;;2.64;96.34;97364.75;5077040;28;20224;-72
2021/12/06 00:35:47;;;;;;;9.47;7.30;;;;;;;2.67;96.12;97372.28;5076780;28;20221;-73
2021/12/06 00:38:13;;;;;;;7.73;6.47;;;;;;;2.66;96.07;97366.19;5076389;28;20216;-73
2021/12/06 00:40:44;;;;;;;8.20;6.83;;;;;;;2.66;96.95;97368.81;5077016;28;20188;-72
2021/12/06 00:43:10;;;;;;;10.90;7.10;;;;;;;2.67;96.46;97377.53;5076907;28;20244;-72
2021/12/06 00:45:37;;;;;;;8.30;6.70;;;;;;;2.66;96.17;97378.53;5076938;28;20212;-73
2021/12/06 00:48:04;;;;;;;12.70;7.30;;;;;;;2.54;96.59;97385.25;5076814;28;20603;-73
2021/12/06 00:50:33;;;;;;;8.50;6.87;;;;;;;2.61;96.56;97384.31;5076830;28;20192;-72
2021/12/06 00:53:00;;;;;;;8.23;6.73;;;;;;;2.57;96.28;97390.13;5077196;28;20210;-73
2021/12/06 00:55:26;;;;;;;9.90;6.40;;;;;;;2.54;96.78;97387.88;5077084;28;20185;-73
2021/12/06 00:57:53;;;;;;;7.67;6.83;;;;;;;2.53;96.31;97388.88;5076700;28;20224;-72
2021/12/06 01:00:35;;;;;;;8.63;6.57;;;;;;;2.48;97.12;97394.66;5076722;28;20204;-73
2021/12/06 01:03:04;;;;;;;8.40;6.87;;;;;;;2.43;96.90;97391.78;5076664;28;20193;-73
2021/12/06 01:05:30;;;;;;;8.83;6.97;;;;;;;2.39;97.37;97400.22;5076688;28;20193;-73
2021/12/06 01:07:57;;;;;;;8.40;7.13;;;;;;;2.36;97.69;97398.78;5076675;28;20327;-72
2021/12/06 01:10:25;;;;;;;8.40;6.47;;;;;;;2.38;97.50;97403.81;5076315;28;20185;-72
2021/12/06 01:12:52;;;;;;;9.10;7.40;;;;;;;2.39;97.41;97406.25;5076229;28;20636;-73
2021/12/06 01:15:19;;;;;;;9.70;7.40;;;;;;;2.38;97.32;97402.00;5076455;28;20484;-73
2021/12/06 01:17:47;;;;;;;9.57;7.60;;;;;;;2.39;97.49;97410.72;5076407;28;20212;-73
2021/12/06 01:20:19;;;;;;;9.97;7.53;;;;;;;2.41;97.60;97416.56;5076453;28;20200;-73
2021/12/06 01:22:51;;;;;;;8.20;6.97;;;;;;;2.41;97.42;97420.03;5076202;28;20185;-72
2021/12/06 01:25:28;;;;;;;9.63;7.37;;;;;;;2.40;97.36;97428.06;5076490;28;20221;-72
2021/12/06 01:30:51;;;;;;;8.00;7.17;;;;;;;2.39;97.93;97431.69;5076237;28;20238;-72
2021/12/06 01:33:42;;;;;;;9.07;7.63;;;;;;;2.37;97.64;97438.91;5076356;28;20230;-73
2021/12/06 01:39:16;;;;;;;9.17;8.00;;;;;;;2.41;97.52;97445.41;5076334;28;20246;-72
2021/12/06 01:41:48;;;;;;;10.33;7.93;;;;;;;2.48;97.19;97454.19;5076291;28;20197;-72
2021/12/06 01:44:19;;;;;;;8.47;7.67;;;;;;;2.39;97.19;97458.72;5076197;28;20255;-73
2021/12/06 01:46:59;;;;;;;10.00;7.33;;;;;;;2.37;97.84;97463.34;5076233;28;20192;-72
2021/12/06 01:49:29;;;;;;;9.17;7.40;;;;;;;2.49;96.41;97466.31;5076717;28;20564;-72
2021/12/06 01:51:58;;;;;;;8.90;8.00;;;;;;;2.46;97.18;97462.25;5079928;28;20580;-73
2021/12/06 01:54:24;;;;;;;9.43;7.50;;;;;;;2.45;97.38;97472.91;5080109;28;20228;-73
2021/12/06 01:56:53;;;;;;;9.07;7.57;;;;;;;2.44;96.80;97466.84;5080160;28;20201;-72
2021/12/06 01:59:22;;;;;;;9.93;7.67;;;;;;;2.40;97.25;97467.41;5079684;28;20223;-72
2021/12/06 02:01:49;;;;;;;12.60;8.17;;;;;;;2.40;97.02;97462.94;5080050;28;20193;-72
2021/12/06 02:04:15;;;;;;;11.20;8.50;;;;;;;2.43;98.04;97467.84;5079886;28;20224;-72
2021/12/06 02:06:42;;;;;;;8.93;8.03;;;;;;;2.51;96.86;97464.31;5079807;28;20197;-72
2021/12/06 02:09:11;;;;;;;10.53;9.43;;;;;;;2.47;97.73;97465.66;5079880;28;20196;-73
2021/12/06 02:11:39;;;;;;;10.00;8.80;;;;;;;2.62;95.98;97471.72;5079713;28;20208;-72
2021/12/06 02:14:20;;;;;;;11.20;8.53;;;;;;;2.53;96.19;97462.34;5079376;28;20586;-72
2021/12/06 02:17:01;;;;;;;11.03;8.47;;;;;;;2.50;96.43;97471.38;5079807;28;20201;-73
2021/12/06 02:19:32;;;;;;;10.43;9.10;;;;;;;2.55;96.26;97473.44;5079596;28;20311;-73
2021/12/06 02:21:59;;;;;;;9.03;8.10;;;;;;;2.57;95.99;97476.72;5079617;28;20254;-73
2021/12/06 02:24:26;;;;;;;9.70;8.63;;;;;;;2.69;95.25;97480.47;5079216;28;20580;-73
2021/12/06 02:26:53;;;;;;;8.90;8.10;;;;;;;2.75;95.92;97485.00;5079517;28;20203;-72
2021/12/06 02:29:20;;;;;;;9.83;8.60;;;;;;;2.61;96.38;97493.69;5079256;28;20220;-72
2021/12/06 02:31:47;;;;;;;10.60;9.50;;;;;;;2.60;96.54;97492.06;5079714;28;20215;-73
2021/12/06 02:34:14;;;;;;;10.00;9.00;;;;;;;2.50;96.35;97491.53;5079310;28;20227;-73
2021/12/06 02:36:42;;;;;;;9.73;8.73;;;;;;;2.53;96.31;97496.44;5079387;28;20195;-72
2021/12/06 02:39:10;;;;;;;11.27;8.80;;;;;;;2.53;96.53;97488.56;5079217;28;20221;-72
2021/12/06 02:41:38;;;;;;;10.27;8.90;;;;;;;2.52;96.15;97489.56;5078980;28;20235;-72
2021/12/06 02:44:05;;;;;;;12.83;9.03;;;;;;;2.51;95.95;97499.25;5078848;28;20659;-73
2021/12/06 02:46:31;;;;;;;10.07;8.80;;;;;;;2.51;97.12;97498.41;5079194;28;20189;-72
2021/12/06 02:48:58;;;;;;;9.60;8.33;;;;;;;2.47;96.33;97497.16;5078855;28;20193;-72
2021/12/06 02:51:27;;;;;;;10.23;7.77;;;;;;;2.49;96.55;97498.59;5079095;28;20192;-72
2021/12/06 02:53:53;;;;;;;10.90;8.23;;;;;;;2.52;96.24;97500.06;5079021;28;20260;-72
2021/12/06 02:56:30;;;;;;;9.57;7.90;;;;;;;2.63;96.37;97508.28;5078677;28;20201;-73
2021/12/06 02:59:05;;;;;;;10.70;8.10;;;;;;;2.54;96.50;97504.13;5078526;28;20634;-72
2021/12/06 03:01:52;;;;;;;10.73;8.70;;;;;;;2.48;96.53;97504.84;5078312;28;20189;-72
2021/12/06 03:04:19;;;;;;;10.87;9.63;;;;;;;2.57;96.42;97513.44;5078472;28;20666;-73
2021/12/06 03:06:47;;;;;;;10.43;8.53;;;;;;;2.58;97.17;97513.25;5078803;28;20204;-73
2021/12/06 03:09:22;;;;;;;11.47;9.87;;;;;;;2.67;95.70;97513.97;5078732;28;20201;-73
2021/12/06 03:11:51;;;;;;;10.97;9.83;;;;;;;2.64;96.66;97517.78;5078518;28;20226;-72
2021/12/06 03:14:21;;;;;;;10.17;9.17;;;;;;;2.54;96.73;97509.38;5078646;28;20304;-72
2021/12/06 03:16:48;;;;;;;11.73;10.17;;;;;;;2.57;96.25;97521.31;5078626;28;20212;-72
2021/12/06 03:19:15;;;;;;;11.80;10.63;;;;;;;2.72;95.35;97522.09;5078476;28;20524;-72
2021/12/06 03:21:41;;;;;;;12.63;11.37;;;;;;;2.58;95.52;97522.94;5078298;28;20185;-73
2021/12/06 03:24:08;;;;;;;12.13;11.00;;;;;;;2.67;95.01;97527.88;5078401;28;20631;-73
2021/12/06 03:26:37;;;;;;;11.13;10.00;;;;;;;2.79;94.09;97530.88;5078329;28;20615;-72
2021/12/06 03:29:05;;;;;;;11.33;10.27;;;;;;;2.84;94.15;97521.44;5078437;28;20192;-72
2021/12/06 03:31:32;;;;;;;12.17;10.90;;;;;;;2.69;94.33;97527.72;5078007;28;20205;-72
2021/12/06 03:33:59;;;;;;;12.50;11.30;;;;;;;2.66;94.65;97533.34;5077875;28;20224;-72
2021/12/06 03:36:28;;;;;;;12.23;11.13;;;;;;;2.53;95.28;97541.84;5077956;28;20598;-72
2021/12/06 03:38:57;;;;;;;12.40;11.20;;;;;;;2.60;95.41;97547.19;5078155;28;20209;-72
2021/12/06 03:41:25;;;;;;;14.07;12.73;;;;;;;2.54;95.45;97550.53;5078123;28;20215;-72
2021/12/06 03:43:53;;;;;;;13.67;12.30;;;;;;;2.59;95.38;97549.00;5078315;28;20221;-72
2021/12/06 03:46:23;;;;;;;14.80;13.37;;;;;;;2.40;96.81;97560.00;5078038;28;20291;-72
2021/12/06 03:48:50;;;;;;;14.67;13.10;;;;;;;2.54;96.43;97563.66;5078202;28;20196;-72
2021/12/06 03:51:17;;;;;;;15.53;14.03;;;;;;;2.51;96.48;97561.38;5078116;28;20196;-72
2021/12/06 03:53:44;;;;;;;14.73;13.27;;;;;;;2.46;96.45;97558.47;5077776;28;20232;-72
2021/12/06 03:56:12;;;;;;;14.37;12.97;;;;;;;2.62;95.88;97563.56;5077794;28;20200;-72
2021/12/06 03:58:39;;;;;;;14.07;12.63;;;;;;;2.66;95.23;97568.25;5077665;28;20228;-72
2021/12/06 04:01:06;;;;;;;14.80;13.40;;;;;;;2.65;95.13;97571.88;5077653;28;20192;-72
2021/12/06 04:03:35;;;;;;;15.23;13.73;;;;;;;2.56;95.87;97569.50;5077545;28;20231;-73
2021/12/06 04:06:04;;;;;;;15.50;13.90;;;;;;;2.50;96.14;97573.69;5077317;28;20480;-72
2021/12/06 04:08:30;;;;;;;15.80;13.87;;;;;;;2.35;97.23;97580.72;5077502;28;20502;-73
2021/12/06 04:10:56;;;;;;;15.50;13.90;;;;;;;2.50;96.80;97578.13;5077419;28;20204;-72
2021/12/06 04:13:23;;;;;;;15.27;13.77;;;;;;;2.64;95.67;97579.94;5076030;28;20289;-72
2021/12/06 04:15:50;;;;;;;14.63;13.20;;;;;;;2.64;95.89;97583.38;5077359;28;20200;-72
2021/12/06 04:18:16;;;;;;;15.37;13.50;;;;;;;2.59;95.97;97582.28;5077231;28;20209;-72
2021/12/06 04:20:43;;;;;;;14.93;13.37;;;;;;;2.45;96.28;97593.59;5077243;28;20204;-73
2021/12/06 04:23:11;;;;;;;15.40;13.97;;;;;;;2.53;96.30;97596.13;5076705;28;20608;-72
2021/12/06 04:25:39;;;;;;;18.77;15.93;;;;;;;2.43;97.39;97601.63;5077223;28;20208;-72
2021/12/06 04:28:08;;;;;;;17.27;15.07;;;;;;;2.49;97.47;97603.53;5076850;28;20588;-72
2021/12/06 04:30:37;;;;;;;18.00;16.17;;;;;;;2.51;98.93;97608.59;5076706;28;20638;-72
2021/12/06 04:33:05;;;;;;;21.60;17.87;;;;;;;2.55;98.29;97592.34;5076789;28;20227;-73
2021/12/06 04:35:34;;;;;;;20.13;17.57;;;;;;;2.50;98.59;97607.81;5076786;28;20197;-72
2021/12/06 04:38:01;;;;;;;20.60;17.77;;;;;;;2.51;98.83;97603.34;5076674;28;20189;-72
2021/12/06 04:40:28;;;;;;;21.20;18.40;;;;;;;2.49;99.10;97600.91;5076218;28;20608;-72
2021/12/06 04:42:56;;;;;;;24.90;18.43;;;;;;;2.46;99.14;97605.69;5076611;28;20250;-68
2021/12/06 04:45:23;;;;;;;23.67;19.20;;;;;;;2.43;99.67;97612.13;5076332;28;20191;-68
2021/12/06 04:47:51;;;;;;;24.67;18.20;;;;;;;2.50;99.15;97609.59;5076597;28;20200;-68
2021/12/06 04:50:20;;;;;;;22.23;17.70;;;;;;;2.46;98.72;97624.06;5076623;28;20192;-68
2021/12/06 04:52:47;;;;;;;22.80;17.53;;;;;;;2.50;99.76;97633.22;5076662;28;20196;-68
2021/12/06 04:55:34;;;;;;;21.40;17.23;;;;;;;2.54;99.71;97631.88;5076272;28;20228;-68
2021/12/06 04:58:01;;;;;;;21.73;18.40;;;;;;;2.50;99.11;97635.84;5076299;28;20185;-68
2021/12/06 05:00:34;;;;;;;22.10;17.77;;;;;;;2.47;99.51;97634.38;5076282;28;20216;-68
2021/12/06 05:03:01;;;;;;;23.30;18.27;;;;;;;2.50;99.69;97636.66;5076495;28;20193;-68
2021/12/06 05:05:38;;;;;;;22.00;17.57;;;;;;;2.46;99.50;97647.66;5076521;28;20210;-68
2021/12/06 05:08:18;;;;;;;20.27;17.03;;;;;;;2.50;99.33;97654.19;5076182;28;20548;-68
2021/12/06 05:10:45;;;;;;;20.80;16.73;;;;;;;2.50;99.85;97652.41;5076266;28;20196;-68
2021/12/06 05:13:12;;;;;;;20.57;17.07;;;;;;;2.48;99.32;97649.13;5075929;28;20233;-68
2021/12/06 05:15:38;;;;;;;18.60;16.60;;;;;;;2.53;99.17;97653.84;5075956;28;20208;-68
2021/12/06 05:18:05;;;;;;;19.83;16.60;;;;;;;2.51;98.68;97661.06;5075866;28;20211;-68
2021/12/06 05:20:32;;;;;;;18.83;16.23;;;;;;;2.62;98.56;97661.44;5076059;28;20299;-68
2021/12/06 05:22:59;;;;;;;18.17;16.23;;;;;;;2.80;97.19;97677.69;5075893;28;20196;-68
2021/12/06 05:25:26;;;;;;;18.97;16.97;;;;;;;2.65;97.84;97684.72;5075938;28;20193;-68
2021/12/06 05:27:53;;;;;;;24.13;18.47;;;;;;;2.51;97.94;97695.19;5076264;28;20200;-68
2021/12/06 05:30:22;;;;;;;22.30;17.57;;;;;;;2.57;99.10;97697.91;5076251;28;20197;-68
2021/12/06 05:32:49;;;;;;;22.17;18.30;;;;;;;2.52;97.94;97697.63;5076092;28;20204;-68
2021/12/06 05:35:16;;;;;;;20.30;17.73;;;;;;;2.55;98.21;97701.69;5076177;28;20204;-68
2021/12/06 05:37:54;;;;;;;20.90;17.43;;;;;;;2.56;97.68;97705.94;5075871;28;20197;-68
2021/12/06 05:40:27;;;;;;;20.40;16.93;;;;;;;2.52;97.77;97708.13;5075906;28;20262;-68
2021/12/06 05:42:54;;;;;;;23.03;18.23;;;;;;;2.58;98.44;97715.28;5075614;28;20199;-68
2021/12/06 05:45:24;;;;;;;22.00;17.60;;;;;;;2.53;97.68;97707.13;5075635;28;20208;-68
2021/12/06 05:47:51;;;;;;;19.83;16.43;;;;;;;2.51;97.50;97717.00;5075584;28;20287;-67
2021/12/06 05:50:22;;;;;;;20.73;16.83;;;;;;;2.56;98.48;97722.53;5075459;28;20200;-68
2021/12/06 05:52:52;;;;;;;19.73;16.60;;;;;;;2.57;97.83;97716.28;5075872;28;20204;-68
2021/12/06 05:55:19;;;;;;;20.97;17.20;;;;;;;2.63;97.86;97722.63;5075795;28;20220;-68
2021/12/06 05:57:46;;;;;;;22.43;17.70;;;;;;;2.58;98.49;97724.97;5075326;28;20291;-68
2021/12/06 06:00:16;;;;;;;22.13;18.27;;;;;;;2.59;98.05;97730.06;5075415;28;20646;-70
2021/12/06 06:02:43;;;;;;;20.70;18.00;;;;;;;2.57;97.67;97739.88;5075713;28;20208;-68
2021/12/06 06:05:10;;;;;;;18.50;15.97;;;;;;;2.49;97.17;97739.94;5075420;28;20231;-68
2021/12/06 06:07:37;;;;;;;22.57;17.20;;;;;;;2.58;97.78;97745.97;5075568;28;20192;-68
2021/12/06 06:10:05;;;;;;;20.77;17.00;;;;;;;2.50;97.17;97746.03;5075635;28;20192;-68
2021/12/06 06:12:31;;;;;;;22.07;17.60;;;;;;;2.60;98.81;97754.47;5074774;28;20527;-68
2021/12/06 06:14:58;;;;;;;23.07;17.73;;;;;;;2.61;98.29;97753.47;5074790;28;20635;-68
2021/12/06 06:17:24;;;;;;;22.57;16.77;;;;;;;2.59;97.92;97760.72;5074957;28;20526;-68
2021/12/06 06:19:54;;;;;;;20.47;17.03;;;;;;;2.66;97.74;97759.03;5074949;28;20661;-69
2021/12/06 06:22:21;;;;;;;19.90;17.00;;;;;;;2.65;96.96;97766.06;5075197;28;20193;-68
2021/12/06 06:24:48;;;;;;;20.87;17.30;;;;;;;2.64;97.04;97763.63;5074929;28;20224;-68
2021/12/06 06:27:15;;;;;;;21.57;16.83;;;;;;;2.61;97.74;97777.09;5075250;28;20193;-68
2021/12/06 06:29:41;;;;;;;21.70;17.40;;;;;;;2.64;97.76;97777.56;5074821;28;20200;-68
2021/12/06 06:32:08;;;;;;;19.93;16.40;;;;;;;2.74;96.33;97777.31;5074590;28;20201;-68
2021/12/06 06:34:35;;;;;;;22.07;18.13;;;;;;;2.62;97.26;97768.25;5074549;28;20217;-68
2021/12/06 06:37:02;;;;;;;21.70;18.37;;;;;;;2.61;97.75;97782.31;5076157;28;20188;-68
2021/12/06 06:39:29;;;;;;;24.03;17.30;;;;;;;2.59;98.47;97784.31;5078708;28;20205;-68
2021/12/06 06:41:56;;;;;;;21.10;17.80;;;;;;;2.64;97.23;97789.84;5078537;28;20189;-68
2021/12/06 06:44:22;;;;;;;21.93;18.87;;;;;;;2.64;97.98;97798.56;5078043;28;20231;-68
2021/12/06 06:46:50;;;;;;;25.47;19.23;;;;;;;2.68;97.99;97799.03;5078526;28;20192;-68
2021/12/06 06:49:17;;;;;;;21.57;18.57;;;;;;;2.50;98.05;97803.75;5078291;28;20618;-69
2021/12/06 06:51:46;;;;;;;24.33;19.90;;;;;;;2.52;98.81;97804.41;5078431;28;20205;-68
2021/12/06 06:54:12;;;;;;;24.07;20.00;;;;;;;2.57;98.42;97808.09;5078306;28;20246;-68
2021/12/06 06:56:39;;;;;;;25.77;20.10;;;;;;;2.51;98.20;97808.81;5078249;28;20196;-69
2021/12/06 06:59:06;;;;;;;24.03;19.63;;;;;;;2.52;98.98;97815.69;5077752;28;20217;-68
2021/12/06 07:01:33;;;;;;;26.40;19.90;;;;;;;2.55;98.77;97827.66;5078487;28;20224;-68
2021/12/06 07:04:00;;;;;;;24.33;19.87;;;;;;;2.57;98.76;97829.09;5078116;28;20227;-69
2021/12/06 07:06:29;;;;;;;24.60;19.47;;;;;;;2.48;98.37;97835.41;5078320;28;20278;-68
2021/12/06 07:08:56;;;;;;;22.80;18.60;;;;;;;2.52;99.46;97841.13;5078468;28;20193;-69
2021/12/06 07:11:24;;;;;;;24.53;19.97;;;;;;;2.45;98.80;97845.44;5078046;28;20287;-68
2021/12/06 07:13:51;;;;;;;25.63;19.13;;;;;;;2.51;98.83;97836.84;5077787;28;20224;-68
2021/12/06 07:16:18;;;;;;;23.97;19.80;;;;;;;2.53;98.88;97843.56;5077862;28;20580;-69
2021/12/06 07:18:45;;;;;;;27.37;19.57;;;;;;;2.50;98.27;97843.09;5077977;28;20188;-68
2021/12/06 07:21:12;;;;;;;24.40;19.07;;;;;;;2.59;98.10;97855.19;5078291;28;20224;-68
2021/12/06 07:23:39;;;;;;;22.87;19.63;;;;;;;2.63;98.06;97853.84;5078314;28;20221;-68
2021/12/06 07:26:10;;;;;;;24.10;19.23;;;;;;;2.61;98.20;97854.00;5078091;28;20193;-69
2021/12/06 07:28:38;;;;;;;25.00;18.80;;;;;;;2.67;98.14;97855.13;5077377;28;20596;-69
2021/12/06 07:31:06;;;;;;;24.23;18.30;;;;;;;2.64;98.44;97858.09;5077537;28;20200;-69
2021/12/06 07:33:36;;;;;;;24.43;20.20;;;;;;;2.64;98.39;97861.53;5061888;28;20644;-69
2021/12/06 07:36:04;;;;;;;22.77;18.00;;;;;;;2.67;97.95;97861.19;5058187;28;20570;-68
2021/12/06 07:38:31;;;;;;;26.40;19.40;;;;;;;2.63;98.63;97864.34;5057482;28;20208;-68
2021/12/06 07:40:58;;;;;;;26.07;19.33;;;;;;;2.64;98.02;97865.97;5064408;28;20208;-67
2021/12/06 07:43:25;;;;;;;25.23;18.67;;;;;;;2.60;98.08;97867.28;5077687;28;20220;-68
2021/12/06 07:45:51;;;;;;;23.97;18.63;;;;;;;2.65;98.21;97864.97;5077500;28;20199;-68
2021/12/06 07:48:18;;;;;;;22.37;17.57;;;;;;;2.69;97.59;97867.09;5077479;28;20212;-69
2021/12/06 07:50:44;;;;;;;24.93;18.63;;;;;;;2.56;97.85;97873.88;5076871;28;20200;-68
2021/12/06 07:53:11;;;;;;;22.57;18.40;;;;;;;2.63;98.34;97880.91;5057279;28;20233;-68
2021/12/06 07:55:38;;;;;;;21.50;17.47;;;;;;;2.61;97.72;97879.41;5057234;28;20589;-68
2021/12/06 07:58:09;;;;;;;24.00;17.47;;;;;;;2.64;98.10;97886.97;5057213;28;20304;-68
2021/12/06 08:00:41;;;;;;;24.93;18.10;;;;;;;2.71;96.99;97882.66;5057326;28;20225;-68
2021/12/06 08:03:08;;;;;;;24.80;18.13;;;;;;;2.66;97.82;97885.00;5057387;28;20193;-68
2021/12/06 08:05:37;;;;;;;23.00;17.13;;;;;;;2.70;97.99;97889.72;5057514;28;20255;-68
2021/12/06 08:08:22;;;;;;;21.87;16.90;;;;;;;2.83;97.37;97889.13;5056989;28;20232;-68
2021/12/06 08:10:52;;;;;;;23.27;16.87;;;;;;;2.79;97.13;97890.47;5057191;28;20186;-69
2021/12/06 08:13:22;;;;;;;23.73;17.97;;;;;;;2.87;96.74;97887.78;5056491;28;20240;-68
2021/12/06 08:15:51;;;;;;;27.80;18.10;;;;;;;2.71;96.74;97893.97;5057089;28;20213;-68
2021/12/06 08:18:17;;;;;;;25.57;17.23;;;;;;;2.63;97.81;97890.59;5056945;28;20193;-68
2021/12/06 08:20:44;;;;;;;25.40;18.13;;;;;;;2.64;98.01;97887.78;5056851;28;20308;-68
2021/12/06 08:23:11;;;;;;;23.83;17.10;;;;;;;2.71;97.94;97893.97;5057005;28;20221;-68
2021/12/06 08:25:39;;;;;;;21.23;16.77;;;;;;;2.67;97.48;97903.16;5056931;28;20272;-68
2021/12/06 08:28:06;;;;;;;25.10;18.20;;;;;;;2.79;97.75;97898.34;5056416;28;20651;-68
2021/12/06 08:30:33;;;;;;;25.50;17.43;;;;;;;2.82;97.58;97898.81;5057392;28;20194;-68
2021/12/06 08:33:03;;;;;;;22.27;15.90;;;;;;;3.00;97.71;97909.03;5056673;28;20202;-72
2021/12/06 08:35:30;;;;;;;25.53;17.70;;;;;;;3.05;95.97;97906.69;5057283;28;20198;-72
2021/12/06 08:37:59;;;;;;;20.33;15.70;;;;;;;3.00;95.46;97919.53;5056490;28;20186;-72
2021/12/06 08:40:27;;;;;;;21.87;16.10;;;;;;;3.06;96.40;97918.81;5056340;28;20224;-72
2021/12/06 08:42:53;;;;;;;22.30;16.67;;;;;;;3.16;95.08;97916.81;5056421;28;20194;-72
2021/12/06 08:45:20;;;;;;;21.80;16.07;;;;;;;3.15;95.26;97923.84;5056071;28;20198;-72
2021/12/06 08:47:46;;;;;;;23.97;17.87;;;;;;;3.13;95.56;97925.84;5056311;28;20191;-72
2021/12/06 08:50:18;;;;;;;19.23;14.70;;;;;;;3.18;95.02;97928.75;5056508;28;20190;-72
2021/12/06 08:52:45;;;;;;;21.33;15.07;;;;;;;3.20;94.86;97929.41;5056426;28;20267;-72
2021/12/06 08:55:12;;;;;;;20.03;15.73;;;;;;;3.04;95.57;97923.44;5055923;28;20524;-72
2021/12/06 08:57:39;;;;;;;22.10;16.03;;;;;;;3.29;95.39;97920.47;5056344;28;20201;-72
2021/12/06 09:00:08;;;;;;;20.73;15.93;;;;;;;3.37;95.54;97919.56;5055919;28;20220;-72
2021/12/06 09:02:35;;;;;;;20.77;16.20;;;;;;;3.44;94.78;97923.13;5056484;28;20205;-72
2021/12/06 09:05:01;;;;;;;19.77;15.80;;;;;;;3.38;94.76;97929.06;5056377;28;20221;-72
2021/12/06 09:07:27;;;;;;;21.43;16.73;;;;;;;3.42;94.02;97928.56;5056429;28;20206;-72
2021/12/06 09:09:56;;;;;;;21.23;15.60;;;;;;;3.43;93.63;97927.56;5056979;28;20197;-72
2021/12/06 09:12:25;;;;;;;20.60;16.03;;;;;;;3.39;94.70;97922.84;5055860;28;20604;-72
2021/12/06 09:14:55;;;;;;;19.40;13.73;;;;;;;3.41;93.97;97926.09;5056343;28;20220;-72
2021/12/06 09:17:22;;;;;;;17.60;13.37;;;;;;;3.55;92.37;97935.84;5056439;28;20186;-72
2021/12/06 09:19:50;;;;;;;19.67;15.17;;;;;;;3.55;92.33;97948.97;5055938;28;20616;-72
2021/12/06 09:22:18;;;;;;;16.50;14.00;;;;;;;3.53;92.84;97938.63;5056114;28;20202;-72
2021/12/06 09:24:45;;;;;;;17.50;14.37;;;;;;;3.66;92.81;97940.69;5056068;28;20228;-72
2021/12/06 09:27:12;;;;;;;18.00;14.87;;;;;;;3.56;92.59;97943.56;5056111;28;20228;-72
2021/12/06 09:29:39;;;;;;;16.63;14.07;;;;;;;3.70;93.89;97950.66;5055870;28;20198;-72
2021/12/06 09:32:09;;;;;;;16.93;13.77;;;;;;;3.70;91.95;97952.47;5055879;28;20205;-73
2021/12/06 09:34:39;;;;;;;17.13;13.20;;;;;;;3.86;92.31;97950.50;5055789;28;20221;-72
2021/12/06 09:37:07;;;;;;;17.47;14.83;;;;;;;3.77;93.40;97958.63;5055809;28;20244;-72
2021/12/06 09:39:34;;;;;;;17.63;13.97;;;;;;;4.04;92.21;97963.31;5055993;28;20189;-72
2021/12/06 09:42:01;;;;;;;20.53;15.87;;;;;;;3.84;93.17;97951.69;5055917;28;20511;-72
2021/12/06 09:44:27;;;;;;;21.90;15.23;;;;;;;3.70;92.74;97950.66;5055733;28;20233;-72
2021/12/06 09:46:54;;;;;;;21.40;15.30;;;;;;;3.80;91.98;97956.47;5055643;28;20200;-72
2021/12/06 09:49:23;;;;;;;18.30;14.07;;;;;;;3.81;92.28;97952.03;5055868;28;20193;-72
2021/12/06 09:51:55;;;;;;;16.50;13.57;;;;;;;3.82;92.47;97965.00;5055856;28;20189;-72
2021/12/06 09:54:25;;;;;;;16.37;13.67;;;;;;;3.81;91.29;97967.81;5055879;28;20255;-73
2021/12/06 09:56:53;;;;;;;16.90;13.23;;;;;;;3.87;90.82;97967.09;5055703;28;20193;-72
2021/12/06 09:59:25;;;;;;;17.27;14.50;;;;;;;3.91;90.61;97968.38;5055724;28;20200;-72
2021/12/06 10:01:59;;;;;;;23.60;16.13;;;;;;;3.89;91.08;97965.91;5055467;28;20566;-72
2021/12/06 10:04:31;;;;;;;20.97;14.47;;;;;;;4.01;90.22;97964.47;5055756;28;20229;-72
2021/12/06 10:06:58;;;;;;;23.37;14.00;;;;;;;3.96;90.64;97955.50;5055486;28;20581;-72
2021/12/06 10:09:26;;;;;;;19.40;14.77;;;;;;;3.86;91.91;97949.69;5055797;28;20272;-73
2021/12/06 10:11:54;;;;;;;20.07;14.80;;;;;;;4.18;89.52;97949.34;5056773;28;20201;-72
2021/12/06 10:14:21;;;;;;;18.67;14.00;;;;;;;4.17;90.62;97945.09;5059131;28;20235;-72
2021/12/06 10:16:48;;;;;;;18.60;12.93;;;;;;;4.09;89.49;97939.91;5059592;28;20213;-72
2021/12/06 10:19:15;;;;;;;18.93;14.10;;;;;;;4.02;89.55;97933.75;5059503;28;20193;-72
2021/12/06 10:21:43;;;;;;;22.63;15.10;;;;;;;4.06;90.68;97941.09;5059214;28;20221;-72
2021/12/06 10:24:12;;;;;;;18.73;14.77;;;;;;;4.22;89.46;97934.81;5059167;28;20529;-72
2021/12/06 10:26:40;;;;;;;24.90;14.37;;;;;;;4.10;90.41;97920.47;5059460;28;20205;-68
2021/12/06 10:29:12;;;;;;;19.90;14.73;;;;;;;4.14;89.86;97919.13;5059770;28;20193;-67
2021/12/06 10:31:41;;;;;;;19.50;14.80;;;;;;;4.27;90.27;97911.41;5059095;28;20193;-68
2021/12/06 10:34:09;;;;;;;20.73;14.77;;;;;;;4.34;88.66;97904.44;5059118;28;20308;-68
2021/12/06 10:36:35;;;;;;;20.90;14.70;;;;;;;4.44;88.67;97897.84;5058706;28;20644;-67
2021/12/06 10:39:08;;;;;;;18.07;12.20;;;;;;;4.36;87.00;97911.16;5059014;28;20279;-68
2021/12/06 10:41:36;;;;;;;18.10;11.50;;;;;;;4.27;86.66;97906.16;5058876;28;20209;-68
2021/12/06 10:44:14;;;;;;;13.83;10.37;;;;;;;4.24;87.02;97914.41;5058593;28;20674;-68
2021/12/06 10:46:46;;;;;;;11.87;9.07;;;;;;;4.40;86.93;97904.50;5058800;28;20189;-68
2021/12/06 10:49:17;;;;;;;12.90;9.67;;;;;;;4.46;86.52;97905.56;5058986;28;20248;-68
2021/12/06 10:51:43;;;;;;;10.57;8.03;;;;;;;4.23;84.34;97907.50;5058721;28;20186;-68
2021/12/06 10:54:19;;;;;;;10.67;8.30;;;;;;;4.26;85.25;97913.25;5058325;28;20533;-68
2021/12/06 10:56:49;;;;;;;11.63;9.00;;;;;;;4.22;84.11;97908.50;5058255;28;20275;-68
2021/12/06 10:59:26;;;;;;;10.27;8.60;;;;;;;4.22;84.31;97904.09;5058233;28;20549;-69
2021/12/06 11:01:57;;;;;;;11.60;7.67;;;;;;;4.18;84.08;97896.72;5058537;28;20209;-69
2021/12/06 11:04:27;;;;;;;10.83;8.80;;;;;;;4.19;84.64;97908.88;5058522;28;20279;-69
2021/12/06 11:07:01;;;;;;;9.87;7.60;;;;;;;4.21;84.73;97901.63;5058416;28;20185;-69
2021/12/06 11:09:31;;;;;;;9.20;7.43;;;;;;;4.17;83.40;97914.34;5058338;28;20496;-69
2021/12/06 11:12:00;;;;;;;10.60;8.57;;;;;;;4.44;83.49;97916.28;5057972;28;20304;-69
2021/12/06 11:14:31;;;;;;;10.63;7.67;;;;;;;4.66;84.21;97912.72;5058195;28;20225;-67
2021/12/06 11:17:01;;;;;;;12.07;8.77;;;;;;;4.71;82.00;97906.91;5058160;28;20194;-67
2021/12/06 11:19:29;;;;;;;11.60;8.20;;;;;;;4.76;85.62;97900.09;5058137;28;20298;-68
2021/12/06 11:22:05;;;;;;;10.67;7.37;;;;;;;4.85;82.45;97898.97;5057957;28;20213;-68
2021/12/06 11:24:39;;;;;;;6.10;4.97;;;;;;;4.76;80.58;97900.09;5057709;28;20217;-67
2021/12/06 11:27:20;;;;;;;7.17;5.13;;;;;;;4.92;79.61;97888.47;5057751;28;20572;-67
2021/12/06 11:30:04;;;;;;;6.47;4.97;;;;;;;4.96;80.39;97890.56;5057844;28;20193;-68
2021/12/06 11:32:32;;;;;;;6.23;4.63;;;;;;;4.98;79.42;97891.16;5057783;28;20185;-67
2021/12/06 11:35:09;;;;;;;5.47;4.80;;;;;;;5.05;81.26;97901.78;5057756;28;20312;-68
2021/12/06 11:37:35;;;;;;;5.93;5.17;;;;;;;5.22;78.94;97893.44;5057389;28;20581;-68
2021/12/06 11:40:11;;;;;;;5.90;5.00;;;;;;;5.02;79.66;97892.44;5057796;28;20189;-69
2021/12/06 11:43:14;;;;;;;5.00;4.33;;;;;;;5.04;79.04;97886.97;5057782;28;20280;-68